createdAt,value
2022-08-27T00:01:25.535Z,100707.97
2022-08-27T00:03:56.126Z,100713.53
2022-08-27T00:06:25.031Z,100710.75
2022-08-27T00:08:53.800Z,100704.38
2022-08-27T00:11:24.822Z,100712.34
2022-08-27T00:13:54.611Z,100705.56
2022-08-27T00:16:22.053Z,100703.19
2022-08-27T00:18:49.733Z,100703.59
2022-08-27T00:21:18.286Z,100698.81
2022-08-27T00:23:45.613Z,100694.84
2022-08-27T00:26:13.730Z,100699.63
2022-08-27T00:28:42.572Z,100697.63
2022-08-27T00:31:12.124Z,100693.25
2022-08-27T00:33:40.832Z,100695.63
2022-08-27T00:36:08.553Z,100695.63
2022-08-27T00:38:38.786Z,100682.94
2022-08-27T00:41:07.925Z,100685.72
2022-08-27T00:43:59.556Z,100681.31
2022-08-27T00:46:34.042Z,100683.72
2022-08-27T00:49:07.029Z,100684.53
2022-08-27T00:51:37.293Z,100684.13
2022-08-27T00:54:06.829Z,100688.47
2022-08-27T00:56:48.671Z,100682.91
2022-08-27T00:59:19.858Z,100683.72
2022-08-27T01:02:05.962Z,100687.28
2022-08-27T01:04:36.046Z,100685.31
2022-08-27T01:07:05.660Z,100690.47
2022-08-27T01:09:34.865Z,100691.69
2022-08-27T01:12:02.707Z,100692.47
2022-08-27T01:14:29.914Z,100691.28
2022-08-27T01:17:00.949Z,100693.28
2022-08-27T01:19:38.606Z,100687.69
2022-08-27T01:22:19.085Z,100698.81
2022-08-27T01:24:52.210Z,100686.09
2022-08-27T01:27:22.707Z,100686.47
2022-08-27T01:29:50.318Z,100690.06
2022-08-27T01:32:27.961Z,100678.88
2022-08-27T01:34:56.398Z,100677.31
2022-08-27T01:37:26.922Z,100682.06
2022-08-27T01:39:56.565Z,100677.28
2022-08-27T01:42:35.325Z,100680.44
2022-08-27T01:45:13.003Z,100679.66
2022-08-27T01:47:40.402Z,100671.69
2022-08-27T01:50:12.125Z,100670.91
2022-08-27T01:52:39.607Z,100671.69
2022-08-27T01:55:09.619Z,100672.50
2022-08-27T01:57:36.972Z,100672.50
2022-08-27T02:00:17.973Z,100674.47
2022-08-27T02:02:47.860Z,100680.00
2022-08-27T02:05:16.752Z,100668.53
2022-08-27T02:07:44.736Z,100674.09
2022-08-27T02:10:15.487Z,100673.31
2022-08-27T02:12:42.757Z,100671.31
2022-08-27T02:15:10.421Z,100669.34
2022-08-27T02:17:38.952Z,100667.34
2022-08-27T02:20:09.293Z,100667.75
2022-08-27T02:22:37.266Z,100663.75
2022-08-27T02:25:10.357Z,100668.53
2022-08-27T02:27:38.193Z,100664.13
2022-08-27T02:30:06.385Z,100664.09
2022-08-27T02:32:33.797Z,100654.16
2022-08-27T02:35:01.805Z,100658.91
2022-08-27T02:37:29.529Z,100654.13
2022-08-27T02:39:59.349Z,100654.88
2022-08-27T02:42:28.101Z,100656.06
2022-08-27T02:44:55.280Z,100652.06
2022-08-27T02:47:22.712Z,100651.69
2022-08-27T02:49:49.920Z,100649.28
2022-08-27T02:52:17.478Z,100646.94
2022-08-27T02:54:52.861Z,100650.91
2022-08-27T02:57:20.314Z,100650.91
2022-08-27T02:59:47.987Z,100650.91
2022-08-27T03:02:15.516Z,100648.13
2022-08-27T03:04:43.166Z,100660.03
2022-08-27T03:07:14.959Z,100650.91
2022-08-27T03:09:46.385Z,100653.25
2022-08-27T03:12:13.674Z,100656.41
2022-08-27T03:14:41.061Z,100666.72
2022-08-27T03:17:26.838Z,100652.03
2022-08-27T03:19:55.837Z,100658.38
2022-08-27T03:22:23.087Z,100650.03
2022-08-27T03:24:51.381Z,100644.88
2022-08-27T03:27:18.537Z,100653.59
2022-08-27T03:29:45.858Z,100647.69
2022-08-27T03:32:13.078Z,100659.56
2022-08-27T03:34:40.290Z,100649.66
2022-08-27T03:37:07.506Z,100658.00
2022-08-27T03:39:34.960Z,100663.16
2022-08-27T03:42:02.613Z,100657.19
2022-08-27T03:44:30.218Z,100656.00
2022-08-27T03:46:57.542Z,100653.59
2022-08-27T03:49:24.819Z,100658.78
2022-08-27T03:51:54.324Z,100654.00
2022-08-27T03:54:22.886Z,100662.72
2022-08-27T03:56:52.494Z,100659.53
2022-08-27T03:59:20.424Z,100665.44
2022-08-27T04:01:47.797Z,100673.41
2022-08-27T04:04:15.058Z,100669.44
2022-08-27T04:06:42.606Z,100665.06
2022-08-27T04:09:09.872Z,100665.84
2022-08-27T04:11:37.784Z,100662.66
2022-08-27T04:14:24.765Z,100659.88
2022-08-27T04:16:57.978Z,100667.00
2022-08-27T04:19:28.516Z,100665.03
2022-08-27T04:22:04.502Z,100667.41
2022-08-27T04:24:33.877Z,100670.56
2022-08-27T04:27:01.977Z,100676.94
2022-08-27T04:29:29.912Z,100675.31
2022-08-27T04:31:57.266Z,100678.50
2022-08-27T04:34:25.000Z,100677.75
2022-08-27T04:36:54.634Z,100676.97
2022-08-27T04:39:22.046Z,100677.34
2022-08-27T04:41:51.115Z,100679.78
2022-08-27T04:44:18.451Z,100679.00
2022-08-27T04:46:49.216Z,100679.84
2022-08-27T04:49:17.388Z,100675.19
2022-08-27T04:51:44.577Z,100686.34
2022-08-27T04:54:13.304Z,100694.38
2022-08-27T04:56:41.074Z,100696.81
2022-08-27T04:59:10.353Z,100697.91
2022-08-27T05:01:39.878Z,100693.94
2022-08-27T05:04:08.313Z,100701.69
2022-08-27T05:06:36.981Z,100697.59
2022-08-27T05:09:05.977Z,100694.44
2022-08-27T05:11:34.971Z,100700.41
2022-08-27T05:14:07.315Z,100704.56
2022-08-27T05:16:38.734Z,100705.50
2022-08-27T05:19:14.875Z,100703.31
2022-08-27T05:21:47.940Z,100701.47
2022-08-27T05:24:15.880Z,100709.41
2022-08-27T05:26:43.517Z,100695.41
2022-08-27T05:29:11.732Z,100701.69
2022-08-27T05:31:42.769Z,100707.91
2022-08-27T05:34:16.707Z,100704.63
2022-08-27T05:36:48.126Z,100710.44
2022-08-27T05:39:17.554Z,100715.00
2022-08-27T05:41:45.117Z,100709.91
2022-08-27T05:44:46.287Z,100709.56
2022-08-27T05:46:59.692Z,100713.91
2022-08-27T05:49:26.995Z,100719.44
2022-08-27T05:51:54.455Z,100720.91
2022-08-27T05:54:21.934Z,100724.38
2022-08-27T05:56:50.245Z,100713.19
2022-08-27T05:59:37.077Z,100722.28
2022-08-27T06:02:06.368Z,100723.56
2022-08-27T06:04:34.029Z,100725.47
2022-08-27T06:07:01.378Z,100723.13
2022-08-27T06:09:29.824Z,100726.22
2022-08-27T06:11:58.684Z,100728.19
2022-08-27T06:14:26.775Z,100721.28
2022-08-27T06:16:54.637Z,100726.00
2022-08-27T06:19:21.926Z,100728.75
2022-08-27T06:22:00.842Z,100728.91
2022-08-27T06:24:39.850Z,100730.63
2022-08-27T06:27:08.847Z,100735.44
2022-08-27T06:29:36.149Z,100732.97
2022-08-27T06:32:03.593Z,100737.03
2022-08-27T06:34:30.785Z,100734.88
2022-08-27T06:36:58.136Z,100742.53
2022-08-27T06:39:25.411Z,100742.50
2022-08-27T06:41:53.330Z,100745.84
2022-08-27T06:44:24.513Z,100747.34
2022-08-27T06:46:52.537Z,100748.53
2022-08-27T06:49:19.731Z,100743.97
2022-08-27T06:51:48.296Z,100745.84
2022-08-27T06:54:17.303Z,100758.25
2022-08-27T06:56:47.175Z,100750.75
2022-08-27T06:59:17.730Z,100757.81
2022-08-27T07:01:49.604Z,100757.97
2022-08-27T07:04:32.412Z,100756.91
2022-08-27T07:07:03.926Z,100766.63
2022-08-27T07:09:35.088Z,100771.72
2022-08-27T07:12:04.359Z,100779.22
2022-08-27T07:14:37.155Z,100775.38
2022-08-27T07:17:07.810Z,100781.19
2022-08-27T07:19:41.127Z,100781.44
2022-08-27T07:22:11.148Z,100778.69
2022-08-27T07:24:38.515Z,100785.09
2022-08-27T07:27:06.713Z,100784.19
2022-08-27T07:29:33.968Z,100780.16
2022-08-27T07:32:02.856Z,100785.19
2022-08-27T07:34:30.411Z,100794.75
2022-08-27T07:36:58.962Z,100780.63
2022-08-27T07:39:26.267Z,100786.16
2022-08-27T07:42:15.600Z,100783.94
2022-08-27T07:44:42.896Z,100778.47
2022-08-27T07:47:10.373Z,100791.91
2022-08-27T07:49:37.942Z,100788.69
2022-08-27T07:52:05.332Z,100792.28
2022-08-27T07:54:33.440Z,100805.97
2022-08-27T07:57:00.757Z,100800.13
2022-08-27T07:59:28.306Z,100799.34
2022-08-27T08:01:56.905Z,100801.63
2022-08-27T08:04:25.334Z,100805.47
2022-08-27T08:06:52.798Z,100803.31
2022-08-27T08:09:22.471Z,100819.75
2022-08-27T08:11:51.104Z,100814.13
2022-08-27T08:14:19.256Z,100822.56
2022-08-27T08:16:46.861Z,100823.22
2022-08-27T08:19:14.184Z,100832.91
2022-08-27T08:21:42.556Z,100829.09
2022-08-27T08:24:09.779Z,100820.28
2022-08-27T08:26:37.116Z,100826.13
2022-08-27T08:29:07.187Z,100823.38
2022-08-27T08:31:34.541Z,100836.97
2022-08-27T08:34:01.939Z,100827.94
2022-08-27T08:36:30.234Z,100830.97
2022-08-27T08:38:57.487Z,100826.78
2022-08-27T08:41:43.005Z,100837.16
2022-08-27T08:44:32.727Z,100840.78
2022-08-27T08:47:17.248Z,100839.75
2022-08-27T08:49:56.529Z,100835.47
2022-08-27T08:52:38.940Z,100841.25
2022-08-27T08:55:47.963Z,100837.94
2022-08-27T08:58:29.709Z,100837.41
2022-08-27T09:01:00.760Z,100832.22
2022-08-27T09:03:29.342Z,100835.81
2022-08-27T09:06:24.397Z,100841.06
2022-08-27T09:08:51.748Z,100840.22
2022-08-27T09:11:27.884Z,100838.13
2022-08-27T09:14:02.829Z,100839.44
2022-08-27T09:16:30.717Z,100845.41
2022-08-27T09:18:58.501Z,100839.66
2022-08-27T09:22:02.228Z,100841.47
2022-08-27T09:24:48.643Z,100848.34
2022-08-27T09:27:16.437Z,100849.13
2022-08-27T09:29:53.519Z,100855.16
2022-08-27T09:32:27.253Z,100848.28
2022-08-27T09:34:59.940Z,100843.97
2022-08-27T09:37:34.201Z,100848.06
2022-08-27T09:40:13.507Z,100854.25
2022-08-27T09:42:56.407Z,100855.94
2022-08-27T09:45:26.914Z,100853.31
2022-08-27T09:48:16.797Z,100849.97
2022-08-27T09:50:54.533Z,100849.41
2022-08-27T09:53:29.789Z,100851.53
2022-08-27T09:56:09.399Z,100843.06
2022-08-27T09:58:45.817Z,100846.28
2022-08-27T10:01:24.857Z,100843.00
2022-08-27T10:04:13.837Z,100848.81
2022-08-27T10:06:51.801Z,100853.56
2022-08-27T10:09:35.870Z,100856.00
2022-08-27T10:12:47.636Z,100853.75
2022-08-27T10:15:15.669Z,100844.38
2022-08-27T10:18:20.137Z,100843.41
2022-08-27T10:21:09.464Z,100850.13
2022-08-27T10:23:45.479Z,100859.66
2022-08-27T10:26:41.179Z,100850.25
2022-08-27T10:29:12.277Z,100847.94
2022-08-27T10:31:58.127Z,100847.91
2022-08-27T10:34:31.433Z,100850.69
2022-08-27T10:37:19.745Z,100841.97
2022-08-27T10:40:18.308Z,100834.00
2022-08-27T10:43:18.138Z,100842.63
2022-08-27T10:45:54.428Z,100838.69
2022-08-27T10:48:35.418Z,100845.34
2022-08-27T10:51:24.947Z,100839.09
2022-08-27T10:54:10.606Z,100838.72
2022-08-27T10:57:14.417Z,100830.16
2022-08-27T11:00:11.022Z,100833.78
2022-08-27T11:02:38.345Z,100839.03
2022-08-27T11:05:24.418Z,100839.16
2022-08-27T11:08:10.889Z,100828.28
2022-08-27T11:10:47.467Z,100833.69
2022-08-27T11:13:40.891Z,100831.03
2022-08-27T11:16:45.464Z,100824.09
2022-08-27T11:19:57.384Z,100832.06
2022-08-27T11:22:34.861Z,100821.06
2022-08-27T11:25:11.061Z,100821.31
2022-08-27T11:27:40.329Z,100824.13
2022-08-27T11:30:31.054Z,100813.69
2022-08-27T11:33:31.998Z,100810.84
2022-08-27T11:36:21.135Z,100820.78
2022-08-27T11:38:51.468Z,100818.19
2022-08-27T11:41:52.329Z,100811.72
2022-08-27T11:44:23.126Z,100816.09
2022-08-27T11:47:15.337Z,100811.34
2022-08-27T11:49:52.010Z,100814.00
2022-08-27T11:52:38.378Z,100811.75
2022-08-27T11:55:21.055Z,100810.66
2022-08-27T11:58:05.725Z,100801.81
2022-08-27T12:00:36.107Z,100803.28
2022-08-27T12:03:23.434Z,100807.69
2022-08-27T12:05:53.574Z,100803.41
2022-08-27T12:08:26.554Z,100793.84
2022-08-27T12:11:15.317Z,100795.94
2022-08-27T12:13:51.960Z,100788.41
2022-08-27T12:16:42.376Z,100789.38
2022-08-27T12:19:47.407Z,100778.66
2022-08-27T12:22:36.620Z,100772.78
2022-08-27T12:25:08.143Z,100784.63
2022-08-27T12:27:35.519Z,100784.38
2022-08-27T12:30:29.718Z,100772.50
2022-08-27T12:32:59.798Z,100778.47
2022-08-27T12:35:34.435Z,100768.22
2022-08-27T12:38:01.866Z,100759.41
2022-08-27T12:40:39.546Z,100760.84
2022-08-27T12:43:18.568Z,100757.09
2022-08-27T12:45:58.039Z,100755.09
2022-08-27T12:48:30.610Z,100763.81
2022-08-27T12:51:09.221Z,100753.00
2022-08-27T12:53:52.855Z,100764.72
2022-08-27T12:56:31.702Z,100754.59
2022-08-27T12:59:11.711Z,100757.59
2022-08-27T13:01:50.257Z,100756.47
2022-08-27T13:04:23.430Z,100754.09
2022-08-27T13:06:51.753Z,100756.38
2022-08-27T13:09:31.575Z,100754.66
2022-08-27T13:12:00.975Z,100753.91
2022-08-27T13:14:36.667Z,100753.88
2022-08-27T13:17:10.070Z,100745.78
2022-08-27T13:19:44.724Z,100758.19
2022-08-27T13:22:21.661Z,100754.84
2022-08-27T13:24:51.607Z,100751.19
2022-08-27T13:27:29.460Z,100756.66
2022-08-27T13:30:01.922Z,100750.28
2022-08-27T13:32:31.190Z,100748.47
2022-08-27T13:35:00.799Z,100745.06
2022-08-27T13:37:36.396Z,100749.47
2022-08-27T13:40:04.342Z,100739.47
2022-08-27T13:42:31.802Z,100730.63
2022-08-27T13:45:04.925Z,100746.31
2022-08-27T13:47:42.406Z,100740.50
2022-08-27T13:50:25.842Z,100739.59
2022-08-27T13:53:17.473Z,100744.09
2022-08-27T13:55:49.272Z,100733.63
2022-08-27T13:58:37.021Z,100733.94
2022-08-27T14:01:32.939Z,100735.72
2022-08-27T14:04:05.145Z,100748.31
2022-08-27T14:06:43.934Z,100739.31
2022-08-27T14:09:30.829Z,100733.53
2022-08-27T14:12:10.955Z,100739.31
2022-08-27T14:14:41.877Z,100743.47
2022-08-27T14:17:26.781Z,100735.63
2022-08-27T14:20:07.113Z,100738.28
2022-08-27T14:22:37.408Z,100745.75
2022-08-27T14:25:05.058Z,100729.75
2022-08-27T14:27:32.584Z,100746.38
2022-08-27T14:29:59.863Z,100741.41
2022-08-27T14:32:27.354Z,100740.16
2022-08-27T14:34:54.593Z,100738.91
2022-08-27T14:37:22.088Z,100743.22
2022-08-27T14:39:49.486Z,100752.06
2022-08-27T14:42:17.901Z,100749.09
2022-08-27T14:44:46.929Z,100748.19
2022-08-27T14:47:16.695Z,100757.03
2022-08-27T14:49:47.294Z,100754.41
2022-08-27T14:52:15.589Z,100762.97
2022-08-27T14:54:45.200Z,100767.44
2022-08-27T14:57:12.703Z,100763.03
2022-08-27T14:59:40.924Z,100753.91
2022-08-27T15:02:14.170Z,100751.91
2022-08-27T15:04:42.337Z,100749.16
2022-08-27T15:07:14.751Z,100752.84
2022-08-27T15:09:42.489Z,100751.16
2022-08-27T15:12:15.086Z,100746.16
2022-08-27T15:14:54.633Z,100739.38
2022-08-27T15:17:34.667Z,100739.34
2022-08-27T15:20:06.057Z,100743.28
2022-08-27T15:22:34.771Z,100740.03
2022-08-27T15:25:05.382Z,100735.91
2022-08-27T15:27:38.435Z,100737.38
2022-08-27T15:30:09.191Z,100726.00
2022-08-27T15:32:40.662Z,100734.34
2022-08-27T15:35:14.058Z,100728.28
2022-08-27T15:37:42.901Z,100720.22
2022-08-27T15:40:11.806Z,100714.69
2022-08-27T15:42:39.317Z,100705.09
2022-08-27T15:45:08.618Z,100698.78
2022-08-27T15:47:35.954Z,100705.50
2022-08-27T15:50:03.345Z,100705.38
2022-08-27T15:52:40.196Z,100699.44
2022-08-27T15:55:25.193Z,100702.16
2022-08-27T15:57:52.470Z,100693.91
2022-08-27T16:00:20.422Z,100697.28
2022-08-27T16:02:48.798Z,100694.69
2022-08-27T16:05:16.658Z,100686.59
2022-08-27T16:07:44.821Z,100688.09
2022-08-27T16:10:12.818Z,100678.41
2022-08-27T16:12:40.260Z,100678.53
2022-08-27T16:15:08.767Z,100681.69
2022-08-27T16:17:36.597Z,100695.63
2022-08-27T16:20:06.095Z,100691.97
2022-08-27T16:22:35.082Z,100695.72
2022-08-27T16:25:03.583Z,100694.53
2022-08-27T16:27:30.801Z,100690.50
2022-08-27T16:29:58.071Z,100691.28
2022-08-27T16:32:26.110Z,100691.41
2022-08-27T16:34:56.099Z,100692.25
2022-08-27T16:37:24.969Z,100698.28
2022-08-27T16:39:52.500Z,100701.97
2022-08-27T16:42:20.629Z,100697.19
2022-08-27T16:44:48.236Z,100709.59
2022-08-27T16:47:16.174Z,100708.00
2022-08-27T16:50:01.777Z,100710.44
2022-08-27T16:52:30.339Z,100709.25
2022-08-27T16:54:57.568Z,100705.59
2022-08-27T16:57:24.970Z,100703.25
2022-08-27T16:59:52.147Z,100698.41
2022-08-27T17:02:31.594Z,100702.78
2022-08-27T17:05:12.330Z,100712.38
2022-08-27T17:07:50.039Z,100709.25
2022-08-27T17:10:19.111Z,100708.47
2022-08-27T17:12:47.417Z,100718.94
2022-08-27T17:15:18.453Z,100719.34
2022-08-27T17:17:46.529Z,100718.94
2022-08-27T17:20:15.761Z,100710.25
2022-08-27T17:22:43.978Z,100714.00
2022-08-27T17:25:11.308Z,100716.97
2022-08-27T17:27:38.883Z,100710.25
2022-08-27T17:30:07.511Z,100715.50
2022-08-27T17:32:39.009Z,100726.75
2022-08-27T17:35:10.601Z,100722.88
2022-08-27T17:37:38.580Z,100727.75
2022-08-27T17:40:06.920Z,100727.00
2022-08-27T17:42:34.271Z,100737.88
2022-08-27T17:45:01.490Z,100734.38
2022-08-27T17:47:30.141Z,100739.59
2022-08-27T17:49:59.247Z,100747.97
2022-08-27T17:52:26.475Z,100751.94
2022-08-27T17:54:56.959Z,100763.13
2022-08-27T17:57:25.680Z,100769.06
2022-08-27T17:59:55.742Z,100773.47
2022-08-27T18:02:33.492Z,100776.31
2022-08-27T18:05:01.266Z,100780.69
2022-08-27T18:07:30.575Z,100788.66
2022-08-27T18:09:57.806Z,100801.00
2022-08-27T18:12:27.524Z,100804.97
2022-08-27T18:15:10.661Z,100814.16
2022-08-27T18:17:42.528Z,100818.16
2022-08-27T18:20:13.479Z,100814.53
2022-08-27T18:22:48.306Z,100820.59
2022-08-27T18:25:18.213Z,100809.41
2022-08-27T18:27:48.661Z,100813.47
2022-08-27T18:30:16.643Z,100808.69
2022-08-27T18:32:43.991Z,100809.13
2022-08-27T18:35:20.799Z,100813.91
2022-08-27T18:37:48.480Z,100816.69
2022-08-27T18:40:17.597Z,100827.47
2022-08-27T18:42:45.389Z,100831.50
2022-08-27T18:45:28.529Z,100830.31
2022-08-27T18:47:56.829Z,100833.09
2022-08-27T18:50:25.024Z,100833.50
2022-08-27T18:52:57.026Z,100841.91
2022-08-27T18:55:28.486Z,100839.81
2022-08-27T18:57:57.135Z,100841.31
2022-08-27T19:00:25.398Z,100843.66
2022-08-27T19:02:54.095Z,100848.03
2022-08-27T19:05:25.360Z,100861.19
2022-08-27T19:07:54.415Z,100861.56
2022-08-27T19:10:21.897Z,100867.94
2022-08-27T19:12:49.228Z,100880.72
2022-08-27T19:15:17.471Z,100882.38
2022-08-27T19:17:50.888Z,100883.97
2022-08-27T19:20:18.970Z,100889.13
2022-08-27T19:22:48.172Z,100885.56
2022-08-27T19:25:16.578Z,100898.31
2022-08-27T19:27:45.431Z,100908.66
2022-08-27T19:30:15.281Z,100913.88
2022-08-27T19:32:42.607Z,100922.28
2022-08-27T19:35:10.764Z,100923.09
2022-08-27T19:37:42.884Z,100923.91
2022-08-27T19:40:13.212Z,100923.94
2022-08-27T19:42:41.678Z,100929.94
2022-08-27T19:45:09.612Z,100925.97
2022-08-27T19:47:37.337Z,100931.19
2022-08-27T19:50:05.901Z,100937.56
2022-08-27T19:52:33.191Z,100941.19
2022-08-27T19:55:13.730Z,100942.41
2022-08-27T19:57:42.823Z,100941.59
2022-08-27T20:00:11.630Z,100935.66
2022-08-27T20:02:39.166Z,100938.06
2022-08-27T20:05:22.990Z,100942.06
2022-08-27T20:07:52.146Z,100946.50
2022-08-27T20:10:23.433Z,100950.84
2022-08-27T20:13:00.141Z,100958.06
2022-08-27T20:15:27.598Z,100958.47
2022-08-27T20:17:56.314Z,100955.31
2022-08-27T20:20:25.516Z,100955.72
2022-08-27T20:22:53.520Z,100956.53
2022-08-27T20:25:21.136Z,100956.53
2022-08-27T20:27:48.343Z,100947.78
2022-08-27T20:30:17.001Z,100951.00
2022-08-27T20:32:44.235Z,100947.81
2022-08-27T20:35:11.725Z,100951.03
2022-08-27T20:37:42.273Z,100947.81
2022-08-27T20:40:18.150Z,100947.41
2022-08-27T20:42:45.634Z,100945.44
2022-08-27T20:45:13.873Z,100946.63
2022-08-27T20:47:43.576Z,100952.63
2022-08-27T20:50:12.034Z,100954.63
2022-08-27T20:52:40.404Z,100951.84
2022-08-27T20:55:09.932Z,100950.63
2022-08-27T20:57:37.081Z,100959.00
2022-08-27T21:00:21.572Z,100958.59
2022-08-27T21:02:48.923Z,100964.16
2022-08-27T21:05:18.288Z,100963.38
2022-08-27T21:07:48.778Z,100965.75
2022-08-27T21:10:16.414Z,100977.31
2022-08-27T21:12:44.499Z,100970.53
2022-08-27T21:15:13.626Z,100976.53
2022-08-27T21:17:41.312Z,100969.34
2022-08-27T21:20:11.098Z,100979.31
2022-08-27T21:22:39.489Z,100973.34
2022-08-27T21:25:08.793Z,100978.50
2022-08-27T21:27:36.691Z,100974.13
2022-08-27T21:30:05.237Z,100971.34
2022-08-27T21:32:34.914Z,100970.16
2022-08-27T21:35:02.201Z,100969.78
2022-08-27T21:37:29.379Z,100967.78
2022-08-27T21:39:56.735Z,100963.75
2022-08-27T21:42:25.432Z,100963.38
2022-08-27T21:44:52.737Z,100961.00
2022-08-27T21:47:20.019Z,100958.63
2022-08-27T21:49:47.188Z,100958.63
2022-08-27T21:52:14.583Z,100953.06
2022-08-27T21:54:42.375Z,100959.00
2022-08-27T21:57:13.921Z,100955.84
2022-08-27T21:59:45.894Z,100958.63
2022-08-27T22:02:38.340Z,100957.00
2022-08-27T22:05:02.688Z,100955.84
2022-08-27T22:07:30.066Z,100951.06
2022-08-27T22:09:57.388Z,100943.09
2022-08-27T22:12:25.658Z,100951.81
2022-08-27T22:14:52.801Z,100947.47
2022-08-27T22:17:19.987Z,100943.06
2022-08-27T22:19:47.166Z,100951.41
2022-08-27T22:22:14.437Z,100954.63
2022-08-27T22:24:41.576Z,100948.63
2022-08-27T22:27:08.839Z,100954.22
2022-08-27T22:29:36.173Z,100947.44
2022-08-27T22:32:03.719Z,100950.63
2022-08-27T22:34:30.846Z,100957.38
2022-08-27T22:36:58.034Z,100952.59
2022-08-27T22:39:25.250Z,100950.63
2022-08-27T22:41:56.299Z,100950.22
2022-08-27T22:44:24.821Z,100951.44
2022-08-27T22:46:52.207Z,100945.44
2022-08-27T22:49:19.471Z,100948.63
2022-08-27T22:51:46.875Z,100949.03
2022-08-27T22:54:14.205Z,100943.06
2022-08-27T22:56:41.469Z,100942.28
2022-08-27T22:59:08.794Z,100937.09
2022-08-27T23:01:36.595Z,100940.66
2022-08-27T23:04:04.907Z,100939.09
2022-08-27T23:06:34.021Z,100937.09
2022-08-27T23:09:02.002Z,100931.94
2022-08-27T23:11:31.965Z,100922.75
2022-08-27T23:14:00.230Z,100921.59
2022-08-27T23:16:28.319Z,100919.19
2022-08-27T23:18:55.618Z,100916.81
2022-08-27T23:21:22.959Z,100917.97
2022-08-27T23:23:50.346Z,100908.03
2022-08-27T23:26:35.824Z,100900.88
2022-08-27T23:29:03.198Z,100901.69
2022-08-27T23:31:30.612Z,100899.69
2022-08-27T23:33:58.330Z,100901.69
2022-08-27T23:36:25.684Z,100900.06
2022-08-27T23:38:53.138Z,100893.28
2022-08-27T23:41:20.434Z,100896.88
2022-08-27T23:43:47.780Z,100904.03
2022-08-27T23:46:15.203Z,100900.84
2022-08-27T23:48:42.540Z,100908.75
2022-08-27T23:51:10.553Z,100908.75
2022-08-27T23:53:38.382Z,100911.16
2022-08-27T23:56:06.217Z,100906.38
2022-08-27T23:58:33.384Z,100903.16
